Time;durP1;ratioP1;P1;durP2;ratioP2;P2;SDS_P1;SDS_P2;PMS_P1;PMS_P2;Temp;Humidity;BMP_temperature;BMP_pressure;BME280_temperature;BME280_humidity;BME280_pressure;Samples;Min_cycle;Max_cycle;Signal;HPM_P1;HPM_P2
2023/02/12 00:02:06;;;;;;;4.13;2.97;;;20.90;49.20;;;;;;5018429;28;20033;-68
2023/02/12 00:04:32;;;;;;;3.83;3.00;;;20.90;49.70;;;;;;5015319;28;20018;-68
2023/02/12 00:06:58;;;;;;;4.10;2.83;;;20.90;49.30;;;;;;5022771;28;20029;-68
2023/02/12 00:09:24;;;;;;;4.45;2.80;;;20.80;49.20;;;;;;5021029;28;20029;-68
2023/02/12 00:11:50;;;;;;;3.40;2.60;;;20.80;49.20;;;;;;5023171;28;20036;-68
2023/02/12 00:14:15;;;;;;;4.18;3.05;;;20.80;49.20;;;;;;5017856;28;20046;-68
2023/02/12 00:16:41;;;;;;;4.55;3.00;;;20.80;49.20;;;;;;5017854;28;20072;-68
2023/02/12 00:19:06;;;;;;;4.25;2.75;;;20.90;49.20;;;;;;5021364;28;20034;-68
2023/02/12 00:21:32;;;;;;;4.72;3.25;;;20.80;49.20;;;;;;5020809;28;20104;-68
2023/02/12 00:23:58;;;;;;;5.03;2.95;;;20.80;49.20;;;;;;5021713;28;20030;-68
2023/02/12 00:26:24;;;;;;;4.25;2.88;;;20.80;49.10;;;;;;5024009;28;20113;-68
2023/02/12 00:28:50;;;;;;;4.63;3.10;;;20.80;49.10;;;;;;5015926;28;20033;-68
2023/02/12 00:31:20;;;;;;;4.15;3.03;;;20.80;49.10;;;;;;5029930;28;20451;-68
2023/02/12 00:33:46;;;;;;;4.00;2.90;;;20.80;49.10;;;;;;5022019;28;20409;-68
2023/02/12 00:36:18;;;;;;;3.72;2.83;;;20.80;49.00;;;;;;5023336;28;20030;-68
2023/02/12 00:38:44;;;;;;;4.18;2.90;;;20.80;49.00;;;;;;5020383;28;20076;-68
2023/02/12 00:41:10;;;;;;;4.25;2.78;;;20.80;49.00;;;;;;5018643;28;20406;-68
2023/02/12 00:43:36;;;;;;;3.95;3.00;;;20.80;49.00;;;;;;5021456;28;20100;-67
2023/02/12 00:46:03;;;;;;;4.35;3.17;;;20.80;49.00;;;;;;5020633;28;20473;-68
2023/02/12 00:48:29;;;;;;;3.95;2.90;;;20.80;48.90;;;;;;5021214;28;20079;-68
2023/02/12 00:50:55;;;;;;;4.25;2.90;;;20.80;48.90;;;;;;5019110;28;20056;-67
2023/02/12 00:53:21;;;;;;;4.72;2.92;;;20.80;48.90;;;;;;5021066;28;20061;-68
2023/02/12 00:55:46;;;;;;;3.60;2.80;;;20.80;48.90;;;;;;5022543;28;20075;-68
2023/02/12 00:58:12;;;;;;;3.75;2.80;;;20.80;48.90;;;;;;5018916;28;20029;-68
2023/02/12 01:00:38;;;;;;;5.85;3.05;;;20.70;48.80;;;;;;5017202;28;20447;-67
2023/02/12 01:03:04;;;;;;;3.85;2.78;;;20.80;48.80;;;;;;5022993;28;20414;-67
2023/02/12 01:05:30;;;;;;;3.85;2.80;;;20.80;48.80;;;;;;5021311;28;20362;-67
2023/02/12 01:07:55;;;;;;;4.32;2.72;;;20.80;48.80;;;;;;5023367;28;20032;-67
2023/02/12 01:10:21;;;;;;;4.13;3.03;;;20.70;48.70;;;;;;5017097;28;20596;-67
2023/02/12 01:12:47;;;;;;;3.83;2.63;;;20.70;48.80;;;;;;5020235;28;20159;-68
2023/02/12 01:15:13;;;;;;;3.50;2.63;;;20.70;48.70;;;;;;5021664;28;20029;-68
2023/02/12 01:17:39;;;;;;;3.60;2.47;;;20.70;48.70;;;;;;5019521;28;20115;-67
2023/02/12 01:20:07;;;;;;;3.10;2.40;;;20.70;48.70;;;;;;5019062;28;20999;-68
2023/02/12 01:22:37;;;;;;;3.17;2.50;;;20.70;48.70;;;;;;5019548;28;20036;-68
2023/02/12 01:25:04;;;;;;;3.35;2.40;;;20.70;48.70;;;;;;5021973;28;20022;-67
2023/02/12 01:27:30;;;;;;;3.67;2.75;;;20.70;48.70;;;;;;5020597;28;20034;-68
2023/02/12 01:29:55;;;;;;;3.28;2.50;;;20.70;48.80;;;;;;5019034;28;20507;-68
2023/02/12 01:32:21;;;;;;;3.67;2.60;;;20.70;48.70;;;;;;5019921;28;20037;-68
2023/02/12 01:34:47;;;;;;;3.35;2.55;;;20.70;48.70;;;;;;5023132;28;20029;-67
2023/02/12 01:37:13;;;;;;;3.28;2.55;;;20.70;48.70;;;;;;5021561;28;20047;-68
2023/02/12 01:39:38;;;;;;;4.13;2.50;;;20.60;48.70;;;;;;5021331;28;20466;-67
2023/02/12 01:42:05;;;;;;;3.00;2.35;;;20.60;48.70;;;;;;5018553;28;20022;-68
2023/02/12 01:44:34;;;;;;;3.65;2.65;;;20.60;48.70;;;;;;5020336;28;20428;-68
2023/02/12 01:47:02;;;;;;;3.88;2.40;;;20.60;48.70;;;;;;5023228;28;20033;-68
2023/02/12 01:49:33;;;;;;;3.35;2.42;;;20.60;48.70;;;;;;5018745;28;20041;-67
2023/02/12 01:52:26;;;;;;;2.92;2.40;;;20.60;48.70;;;;;;5022024;28;20041;-67
2023/02/12 01:54:54;;;;;;;2.90;2.20;;;20.60;48.70;;;;;;5020934;28;20042;-68
2023/02/12 01:57:20;;;;;;;3.88;2.35;;;20.60;48.70;;;;;;5037738;28;20096;-67
2023/02/12 01:59:49;;;;;;;4.10;2.20;;;20.60;48.70;;;;;;5021785;28;20030;-68
2023/02/12 02:02:15;;;;;;;3.33;2.70;;;20.60;48.60;;;;;;5020588;28;20018;-68
2023/02/12 02:04:49;;;;;;;3.45;2.30;;;20.60;48.70;;;;;;5017759;28;20257;-68
2023/02/12 02:07:15;;;;;;;3.15;2.17;;;20.60;48.70;;;;;;5020157;28;20030;-67
2023/02/12 02:09:42;;;;;;;3.15;2.22;;;20.60;48.70;;;;;;5019782;28;20497;-68
2023/02/12 02:14:55;;;;;;;2.88;2.08;;;20.50;48.60;;;;;;5020689;28;20523;-68
2023/02/12 02:17:59;;;;;;;3.78;2.10;;;20.50;48.60;;;;;;5021757;28;20022;-67
2023/02/12 02:20:47;;;;;;;3.50;2.50;;;20.50;48.60;;;;;;5020513;28;20426;-67
2023/02/12 02:23:47;;;;;;;3.33;2.53;;;20.50;48.60;;;;;;5021124;28;20018;-67
2023/02/12 02:26:16;;;;;;;3.50;2.38;;;20.50;48.60;;;;;;5012977;28;20064;-67
2023/02/12 02:28:56;;;;;;;3.03;2.20;;;20.50;48.60;;;;;;5016788;28;20493;-67
2023/02/12 02:31:42;;;;;;;2.92;2.20;;;20.50;48.60;;;;;;5022343;28;20026;-67
2023/02/12 02:34:19;;;;;;;2.80;2.20;;;20.50;48.60;;;;;;5021172;28;20108;-68
2023/02/12 02:36:51;;;;;;;3.42;2.30;;;20.50;48.60;;;;;;5019276;28;20489;-67
2023/02/12 02:39:28;;;;;;;3.42;2.33;;;20.50;48.60;;;;;;5019336;28;20075;-68
2023/02/12 02:42:17;;;;;;;3.92;2.03;;;20.50;48.70;;;;;;5016331;28;20025;-67
2023/02/12 02:44:51;;;;;;;3.15;2.45;;;20.40;48.60;;;;;;5018017;28;20030;-67
2023/02/12 02:47:20;;;;;;;3.00;2.15;;;20.50;48.60;;;;;;5016116;28;20033;-68
2023/02/12 02:49:56;;;;;;;3.35;2.15;;;20.40;48.60;;;;;;5021837;28;20423;-68
2023/02/12 02:52:30;;;;;;;3.20;2.40;;;20.40;48.60;;;;;;5018585;28;20034;-67
2023/02/12 02:55:03;;;;;;;3.15;2.05;;;20.40;48.60;;;;;;5017448;28;20026;-67
2023/02/12 02:57:37;;;;;;;3.00;2.20;;;20.40;48.60;;;;;;5018376;28;20116;-67
2023/02/12 03:00:10;;;;;;;2.67;2.00;;;20.40;48.60;;;;;;5020418;28;20026;-67
2023/02/12 03:02:39;;;;;;;2.90;2.15;;;20.40;48.60;;;;;;5017110;28;20026;-67
2023/02/12 03:05:32;;;;;;;3.40;2.50;;;20.40;48.60;;;;;;5018238;28;20041;-67
2023/02/12 03:08:13;;;;;;;3.00;2.17;;;20.40;48.60;;;;;;5018906;28;20037;-67
2023/02/12 03:10:48;;;;;;;3.10;2.10;;;20.40;48.70;;;;;;5018453;28;20048;-67
2023/02/12 03:13:25;;;;;;;3.20;2.30;;;20.40;48.70;;;;;;5022001;28;20112;-67
2023/02/12 03:16:01;;;;;;;3.03;1.98;;;20.40;48.70;;;;;;5020359;28;20140;-67
2023/02/12 03:18:40;;;;;;;3.10;2.10;;;20.30;48.60;;;;;;5018018;28;20068;-67
2023/02/12 03:21:13;;;;;;;2.72;1.92;;;20.40;48.70;;;;;;5019482;28;20033;-68
2023/02/12 03:23:48;;;;;;;2.95;2.10;;;20.40;48.70;;;;;;5019297;28;20120;-67
2023/02/12 03:26:29;;;;;;;2.67;2.03;;;20.40;48.70;;;;;;5022117;28;20021;-67
2023/02/12 03:28:55;;;;;;;2.90;2.00;;;20.40;48.70;;;;;;5019386;28;20034;-67
2023/02/12 03:31:42;;;;;;;2.83;2.13;;;20.30;48.70;;;;;;5022149;28;20478;-67
2023/02/12 03:34:18;;;;;;;2.90;1.92;;;20.40;48.70;;;;;;5019541;28;20420;-68
2023/02/12 03:37:00;;;;;;;3.10;1.90;;;20.30;48.60;;;;;;5017465;28;20073;-67
2023/02/12 03:39:59;;;;;;;2.72;1.80;;;20.30;48.60;;;;;;5019110;28;20072;-67
2023/02/12 03:42:40;;;;;;;2.78;2.20;;;20.30;48.60;;;;;;5019903;28;20041;-67
2023/02/12 03:45:30;;;;;;;3.05;2.03;;;20.30;48.60;;;;;;5023522;28;20026;-67
2023/02/12 03:48:08;;;;;;;3.03;2.17;;;20.30;48.70;;;;;;5023655;28;20080;-67
2023/02/12 03:50:58;;;;;;;2.72;1.80;;;20.30;48.70;;;;;;5023151;28;20455;-67
2023/02/12 03:53:29;;;;;;;2.80;1.90;;;20.30;48.70;;;;;;5026070;28;20057;-67
2023/02/12 03:56:03;;;;;;;2.90;2.05;;;20.30;48.70;;;;;;5018773;28;20052;-67
2023/02/12 03:58:31;;;;;;;3.17;2.17;;;20.30;48.70;;;;;;5020923;28;20091;-67
2023/02/12 04:00:57;;;;;;;2.88;1.88;;;20.30;48.70;;;;;;5021111;28;20076;-67
2023/02/12 04:03:23;;;;;;;2.45;1.70;;;20.30;48.70;;;;;;5037456;28;20032;-67
2023/02/12 04:05:49;;;;;;;2.88;1.95;;;20.30;48.70;;;;;;5017310;28;20026;-67
2023/02/12 04:08:15;;;;;;;2.53;1.88;;;20.30;48.70;;;;;;5021655;28;20041;-68
2023/02/12 04:10:45;;;;;;;3.10;2.00;;;20.30;48.70;;;;;;5022005;28;20038;-67
2023/02/12 04:13:36;;;;;;;2.53;1.80;;;20.30;48.70;;;;;;5022282;28;20041;-67
2023/02/12 04:16:18;;;;;;;2.90;1.90;;;20.20;48.70;;;;;;5022227;28;20440;-67
2023/02/12 04:18:48;;;;;;;2.42;1.70;;;20.20;48.70;;;;;;5021555;28;20505;-67
2023/02/12 04:21:35;;;;;;;2.42;1.85;;;20.20;48.70;;;;;;5022924;28;20036;-67
2023/02/12 04:24:19;;;;;;;2.60;1.90;;;20.20;49.30;;;;;;5021724;28;20025;-67
2023/02/12 04:27:05;;;;;;;2.97;1.88;;;20.20;48.80;;;;;;5019074;28;20021;-67
2023/02/12 04:30:18;;;;;;;2.55;1.73;;;20.20;48.80;;;;;;5021085;28;20033;-67
2023/02/12 04:32:48;;;;;;;2.22;1.80;;;20.20;48.80;;;;;;4997201;28;20054;-67
2023/02/12 04:35:23;;;;;;;2.47;1.80;;;20.20;48.80;;;;;;5017193;28;20041;-67
2023/02/12 04:38:03;;;;;;;2.90;2.03;;;20.20;48.80;;;;;;5020583;28;20039;-67
2023/02/12 04:40:30;;;;;;;2.97;1.90;;;20.20;48.80;;;;;;5021859;28;20078;-67
2023/02/12 04:42:55;;;;;;;3.08;2.00;;;20.20;48.80;;;;;;5022281;28;20017;-67
2023/02/12 04:45:29;;;;;;;2.90;1.90;;;20.20;48.80;;;;;;5021484;28;20109;-67
2023/02/12 04:47:55;;;;;;;1.85;1.50;;;20.10;49.30;;;;;;5020507;28;20440;-66
2023/02/12 04:50:21;;;;;;;2.88;1.88;;;20.20;48.90;;;;;;5019341;28;20026;-67
2023/02/12 04:52:47;;;;;;;2.80;1.90;;;20.10;48.80;;;;;;5021612;28;20449;-67
2023/02/12 04:55:13;;;;;;;2.70;1.90;;;20.10;48.80;;;;;;5018693;28;20065;-67
2023/02/12 04:57:39;;;;;;;2.85;2.10;;;20.10;48.80;;;;;;5020178;28;20030;-67
2023/02/12 05:00:05;;;;;;;2.72;1.95;;;20.10;48.90;;;;;;5022790;28;20099;-67
2023/02/12 05:02:32;;;;;;;2.75;1.90;;;20.10;48.90;;;;;;5022584;28;20030;-67
2023/02/12 05:04:58;;;;;;;2.17;1.70;;;20.10;48.90;;;;;;5022766;28;20022;-67
2023/02/12 05:07:24;;;;;;;2.70;2.00;;;20.10;48.90;;;;;;5020775;28;20084;-67
2023/02/12 05:09:49;;;;;;;2.75;1.95;;;20.10;48.90;;;;;;5018306;28;20481;-67
2023/02/12 05:12:15;;;;;;;2.60;1.90;;;20.10;48.90;;;;;;5017410;28;20049;-67
2023/02/12 05:14:40;;;;;;;2.55;1.83;;;20.10;48.90;;;;;;5019179;28;20021;-66
2023/02/12 05:17:06;;;;;;;2.50;1.80;;;20.10;48.90;;;;;;5021369;28;20034;-67
2023/02/12 05:19:32;;;;;;;2.75;1.95;;;20.10;48.90;;;;;;5020877;28;20037;-67
2023/02/12 05:21:57;;;;;;;2.70;1.90;;;20.10;48.90;;;;;;5021971;28;20457;-67
2023/02/12 05:24:23;;;;;;;2.90;1.92;;;20.10;48.90;;;;;;5021503;28;20025;-67
2023/02/12 05:26:49;;;;;;;2.70;1.98;;;20.10;49.40;;;;;;5020461;28;20105;-67
2023/02/12 05:29:15;;;;;;;2.60;2.00;;;20.10;48.90;;;;;;5021642;28;20022;-67
2023/02/12 05:31:40;;;;;;;2.95;2.00;;;20.10;49.00;;;;;;5022204;28;20039;-67
2023/02/12 05:34:10;;;;;;;2.53;1.92;;;20.10;49.00;;;;;;5020482;28;20032;-67
2023/02/12 05:36:35;;;;;;;2.50;1.80;;;20.10;49.00;;;;;;5020252;28;20049;-67
2023/02/12 05:39:01;;;;;;;3.42;2.05;;;20.00;48.90;;;;;;5019141;28;20417;-67
2023/02/12 05:41:27;;;;;;;3.22;2.10;;;20.10;49.00;;;;;;5016473;28;20061;-67
2023/02/12 05:43:53;;;;;;;2.67;1.90;;;20.00;48.90;;;;;;5021068;28;20050;-67
2023/02/12 05:46:20;;;;;;;2.85;1.88;;;20.00;48.90;;;;;;5020035;28;20498;-67
2023/02/12 05:48:46;;;;;;;3.20;1.88;;;20.00;48.90;;;;;;5021004;28;20041;-67
2023/02/12 05:51:16;;;;;;;2.90;1.85;;;20.00;48.90;;;;;;5017249;28;20129;-67
2023/02/12 05:53:42;;;;;;;2.83;2.00;;;20.00;48.90;;;;;;5020692;28;20065;-67
2023/02/12 05:56:11;;;;;;;2.28;1.75;;;20.00;48.90;;;;;;5017985;28;20389;-66
2023/02/12 05:58:37;;;;;;;2.50;1.73;;;20.00;48.90;;;;;;5020254;28;20033;-67
2023/02/12 06:01:07;;;;;;;2.75;1.92;;;20.00;48.90;;;;;;5019712;28;20276;-67
2023/02/12 06:03:33;;;;;;;2.20;1.63;;;20.00;49.30;;;;;;5020685;28;20477;-67
2023/02/12 06:05:58;;;;;;;2.70;1.88;;;20.00;48.90;;;;;;5018642;28;20037;-67
2023/02/12 06:08:24;;;;;;;2.33;1.63;;;20.00;49.00;;;;;;5018658;28;20096;-67
2023/02/12 06:10:49;;;;;;;2.55;1.67;;;20.00;49.00;;;;;;5017135;28;20033;-67
2023/02/12 06:13:15;;;;;;;2.42;1.70;;;20.00;49.00;;;;;;5017014;28;20109;-67
2023/02/12 06:15:41;;;;;;;2.60;1.90;;;20.00;49.00;;;;;;5018769;28;20133;-66
2023/02/12 06:18:06;;;;;;;2.67;1.70;;;20.00;49.00;;;;;;5020357;28;20021;-67
2023/02/12 06:20:32;;;;;;;2.83;2.00;;;20.00;49.00;;;;;;5020303;28;20536;-67
2023/02/12 06:22:57;;;;;;;2.78;1.92;;;20.00;49.00;;;;;;5020649;28;20056;-67
2023/02/12 06:25:23;;;;;;;2.70;1.80;;;20.00;49.00;;;;;;5016304;28;20359;-67
2023/02/12 06:27:48;;;;;;;2.47;1.60;;;20.00;49.00;;;;;;5019015;28;20080;-67
2023/02/12 06:30:14;;;;;;;2.70;1.85;;;20.00;49.00;;;;;;5021220;28;20029;-67
2023/02/12 06:32:40;;;;;;;2.72;1.98;;;20.00;49.00;;;;;;5017710;28;20041;-67
2023/02/12 06:35:06;;;;;;;2.10;1.63;;;20.00;49.00;;;;;;5017679;28;20041;-67
2023/02/12 06:37:31;;;;;;;2.25;1.80;;;20.00;49.00;;;;;;5017045;28;20045;-67
2023/02/12 06:39:57;;;;;;;2.50;1.75;;;20.00;49.00;;;;;;5020958;28;20026;-68
2023/02/12 06:42:22;;;;;;;2.30;1.50;;;20.00;49.10;;;;;;5019828;28;20026;-67
2023/02/12 06:44:48;;;;;;;2.90;1.95;;;20.00;49.10;;;;;;5020592;28;20539;-68
2023/02/12 06:47:14;;;;;;;2.28;1.70;;;19.90;49.00;;;;;;5018518;28;20092;-68
2023/02/12 06:49:39;;;;;;;2.58;1.80;;;20.00;49.50;;;;;;5022432;28;20026;-68
2023/02/12 06:52:05;;;;;;;2.22;1.70;;;20.00;49.10;;;;;;5014446;28;20113;-68
2023/02/12 06:54:30;;;;;;;2.35;1.60;;;19.90;49.00;;;;;;5018548;28;20033;-68
2023/02/12 06:56:56;;;;;;;2.15;1.60;;;20.00;49.10;;;;;;5017944;28;20041;-68
2023/02/12 06:59:21;;;;;;;2.50;1.55;;;19.90;49.00;;;;;;5019435;28;20025;-68
2023/02/12 07:01:47;;;;;;;2.33;1.77;;;19.90;49.00;;;;;;5018058;28;20030;-68
2023/02/12 07:04:13;;;;;;;2.55;1.80;;;19.90;49.00;;;;;;5019645;28;20037;-67
2023/02/12 07:06:38;;;;;;;2.38;1.80;;;19.90;49.00;;;;;;5017002;28;20021;-68
2023/02/12 07:09:04;;;;;;;2.40;1.80;;;19.90;49.00;;;;;;5019111;28;20500;-68
2023/02/12 07:11:32;;;;;;;3.45;1.60;;;19.90;49.10;;;;;;5019546;28;20037;-68
2023/02/12 07:13:58;;;;;;;2.25;1.65;;;19.90;49.00;;;;;;5019332;28;20022;-68
2023/02/12 07:16:24;;;;;;;2.40;1.70;;;19.90;49.00;;;;;;5022596;28;20041;-68
2023/02/12 07:18:50;;;;;;;2.63;1.70;;;19.90;49.10;;;;;;5023017;28;20388;-68
2023/02/12 07:21:16;;;;;;;2.60;1.75;;;19.90;49.10;;;;;;5019722;28;20025;-68
2023/02/12 07:23:47;;;;;;;2.58;1.90;;;19.90;49.10;;;;;;5021832;28;20041;-68
2023/02/12 07:26:14;;;;;;;2.33;1.80;;;19.90;49.10;;;;;;5024039;28;20022;-68
2023/02/12 07:28:40;;;;;;;2.58;1.90;;;19.90;49.10;;;;;;5018484;28;20049;-68
2023/02/12 07:31:28;;;;;;;2.88;1.90;;;19.90;49.10;;;;;;5022387;28;20479;-68
2023/02/12 07:33:55;;;;;;;2.85;1.90;;;19.90;49.20;;;;;;5023487;28;20496;-68
2023/02/12 07:36:21;;;;;;;2.28;1.80;;;19.90;49.10;;;;;;5022218;28;20030;-68
2023/02/12 07:38:47;;;;;;;2.30;1.65;;;19.90;49.10;;;;;;5022362;28;20378;-68
2023/02/12 07:41:17;;;;;;;2.80;2.00;;;19.90;49.10;;;;;;5029533;28;20021;-68
2023/02/12 07:43:44;;;;;;;3.00;1.77;;;19.90;49.00;;;;;;5019031;28;20754;-68
2023/02/12 07:46:16;;;;;;;2.75;1.85;;;19.90;49.00;;;;;;5023393;28;20033;-68
2023/02/12 07:48:42;;;;;;;2.30;1.70;;;19.90;49.00;;;;;;5020134;28;20049;-68
2023/02/12 07:51:10;;;;;;;2.60;1.63;;;19.90;49.00;;;;;;5021336;28;20030;-69
2023/02/12 07:53:36;;;;;;;2.25;1.60;;;19.90;49.00;;;;;;5018533;28;20470;-68
2023/02/12 07:56:11;;;;;;;2.28;1.65;;;19.90;49.00;;;;;;5019896;28;20092;-68
2023/02/12 07:58:38;;;;;;;2.40;1.60;;;19.90;49.00;;;;;;5021394;28;20037;-68
2023/02/12 08:01:40;;;;;;;2.35;1.73;;;19.90;49.00;;;;;;5021857;28;20033;-68
2023/02/12 08:04:14;;;;;;;2.17;1.70;;;19.90;49.00;;;;;;5019547;28;20492;-68
2023/02/12 08:06:45;;;;;;;2.15;1.60;;;19.90;48.90;;;;;;5021027;28;20076;-69
2023/02/12 08:09:16;;;;;;;2.35;1.55;;;19.90;49.00;;;;;;5022100;28;20026;-68
2023/02/12 08:11:43;;;;;;;2.47;1.65;;;19.90;48.90;;;;;;5024070;28;20037;-68
2023/02/12 08:14:15;;;;;;;2.78;1.70;;;19.90;48.90;;;;;;5029480;28;20033;-68
2023/02/12 08:16:42;;;;;;;2.20;1.60;;;19.90;49.00;;;;;;5022406;28;20472;-68
2023/02/12 08:19:09;;;;;;;2.75;1.73;;;19.90;49.00;;;;;;5019728;28;20148;-68
2023/02/12 08:21:34;;;;;;;2.47;1.70;;;19.90;48.90;;;;;;5023335;28;20041;-68
2023/02/12 08:24:00;;;;;;;2.55;1.63;;;19.90;48.90;;;;;;5022218;28;20038;-68
2023/02/12 08:26:32;;;;;;;2.40;1.80;;;19.90;48.90;;;;;;5019684;28;20051;-69
2023/02/12 08:29:01;;;;;;;2.05;1.50;;;19.90;48.90;;;;;;5024543;28;20040;-68
2023/02/12 08:31:28;;;;;;;2.13;1.55;;;19.90;48.90;;;;;;5020059;28;20058;-68
2023/02/12 08:33:55;;;;;;;2.28;1.55;;;19.90;48.90;;;;;;5020355;28;20049;-69
2023/02/12 08:36:24;;;;;;;2.80;1.90;;;19.90;48.90;;;;;;5024818;28;20056;-68
2023/02/12 08:38:49;;;;;;;2.57;1.60;;;19.90;48.90;;;;;;5022535;28;20369;-68
2023/02/12 08:41:17;;;;;;;2.47;1.70;;;19.90;48.90;;;;;;5021666;28;20026;-68
2023/02/12 08:43:43;;;;;;;2.28;1.60;;;19.90;48.90;;;;;;5020448;28;20393;-67
2023/02/12 08:46:12;;;;;;;3.67;1.90;;;19.90;49.40;;;;;;5021229;28;20029;-67
2023/02/12 08:48:39;;;;;;;2.35;1.60;;;19.90;48.90;;;;;;5021152;28;20391;-68
2023/02/12 08:51:13;;;;;;;2.50;1.60;;;19.90;48.90;;;;;;5020621;28;20061;-68
2023/02/12 08:53:41;;;;;;;2.00;1.60;;;19.90;48.90;;;;;;5019965;28;20029;-68
2023/02/12 08:56:09;;;;;;;2.35;1.70;;;19.90;48.90;;;;;;5015165;28;20030;-68
2023/02/12 08:58:35;;;;;;;2.60;1.70;;;19.90;48.90;;;;;;5017948;28;20104;-68
2023/02/12 09:01:01;;;;;;;2.30;1.60;;;19.90;48.90;;;;;;5020910;28;20026;-68
2023/02/12 09:03:27;;;;;;;2.13;1.60;;;19.90;48.90;;;;;;5021957;28;20112;-68
2023/02/12 09:05:53;;;;;;;2.20;1.60;;;19.90;48.90;;;;;;5017775;28;20532;-68
2023/02/12 09:08:18;;;;;;;2.33;1.65;;;19.90;48.90;;;;;;5021298;28;20026;-68
2023/02/12 09:10:45;;;;;;;2.28;1.60;;;19.90;48.90;;;;;;5019448;28;20030;-68
2023/02/12 09:13:12;;;;;;;2.58;1.70;;;19.90;48.90;;;;;;5020524;28;20700;-68
2023/02/12 09:15:39;;;;;;;2.50;1.80;;;19.90;48.90;;;;;;5020714;28;20052;-67
2023/02/12 09:18:05;;;;;;;3.42;1.92;;;19.90;48.90;;;;;;5019180;28;20030;-68
2023/02/12 09:20:31;;;;;;;2.67;1.75;;;19.90;48.90;;;;;;5023787;28;20096;-68
2023/02/12 09:22:59;;;;;;;2.78;1.80;;;19.90;48.90;;;;;;5023901;28;20032;-68
2023/02/12 09:25:25;;;;;;;2.60;1.88;;;19.90;49.50;;;;;;5021296;28;20029;-68
2023/02/12 09:27:51;;;;;;;2.47;1.70;;;19.90;49.00;;;;;;5020146;28;20044;-68
2023/02/12 09:30:17;;;;;;;3.25;1.83;;;19.90;49.00;;;;;;5018970;28;20205;-68
2023/02/12 09:32:42;;;;;;;2.47;1.70;;;19.90;49.00;;;;;;5022572;28;20515;-68
2023/02/12 09:35:11;;;;;;;3.20;1.90;;;19.90;49.00;;;;;;5020273;28;20100;-68
2023/02/12 09:37:38;;;;;;;2.45;1.70;;;19.90;49.00;;;;;;5019601;28;20385;-68
2023/02/12 09:40:05;;;;;;;2.50;1.65;;;19.90;49.10;;;;;;5020095;28;20112;-68
2023/02/12 09:43:00;;;;;;;3.30;1.70;;;19.90;49.10;;;;;;5021354;28;20021;-68
2023/02/12 09:45:32;;;;;;;2.13;1.35;;;19.90;49.10;;;;;;5017413;28;20044;-68
2023/02/12 09:48:04;;;;;;;2.45;1.90;;;19.90;49.10;;;;;;5018892;28;20040;-68
2023/02/12 09:50:41;;;;;;;2.63;1.92;;;19.90;49.10;;;;;;5016347;28;20033;-68
2023/02/12 09:53:15;;;;;;;2.60;1.73;;;19.90;49.30;;;;;;5018668;28;20385;-69
2023/02/12 09:55:41;;;;;;;2.60;1.60;;;19.90;49.80;;;;;;5020452;28;20112;-68
2023/02/12 09:58:14;;;;;;;2.50;1.73;;;19.90;49.30;;;;;;5018229;28;20166;-68
2023/02/12 10:00:40;;;;;;;2.92;2.10;;;19.90;49.30;;;;;;5020472;28;20089;-68
2023/02/12 10:03:16;;;;;;;2.50;1.85;;;19.90;49.40;;;;;;5021640;28;20107;-68
2023/02/12 10:05:46;;;;;;;3.10;1.80;;;19.90;49.40;;;;;;5023995;28;20436;-68
2023/02/12 10:08:20;;;;;;;3.22;2.00;;;19.90;49.50;;;;;;5021305;28;20100;-68
2023/02/12 10:10:57;;;;;;;3.10;1.70;;;19.90;49.60;;;;;;5020184;28;20102;-67
2023/02/12 10:13:48;;;;;;;2.78;1.80;;;19.90;49.60;;;;;;5022085;28;20524;-68
2023/02/12 10:16:37;;;;;;;2.85;1.95;;;19.90;49.70;;;;;;5022383;28;20354;-68
2023/02/12 10:19:20;;;;;;;2.45;1.80;;;19.90;49.80;;;;;;5018613;28;20029;-67
2023/02/12 10:22:04;;;;;;;3.00;2.00;;;19.90;49.80;;;;;;5021121;28;20029;-68
2023/02/12 10:24:47;;;;;;;2.80;1.95;;;19.90;50.00;;;;;;5017510;28;20022;-69
2023/02/12 10:27:23;;;;;;;3.47;1.90;;;19.90;50.00;;;;;;5020531;28;20029;-68
2023/02/12 10:29:50;;;;;;;2.80;1.80;;;19.90;50.00;;;;;;5019275;28;20370;-68
2023/02/12 10:32:31;;;;;;;2.70;1.83;;;19.90;50.00;;;;;;5017434;28;20022;-68
2023/02/12 10:34:59;;;;;;;3.40;2.15;;;19.90;50.10;;;;;;5016199;28;20587;-68
2023/02/12 10:37:47;;;;;;;2.97;2.10;;;19.90;50.10;;;;;;5018927;28;20034;-68
2023/02/12 10:40:16;;;;;;;2.77;2.00;;;19.90;50.10;;;;;;5019392;28;20033;-69
2023/02/12 10:42:44;;;;;;;3.00;1.95;;;19.90;50.60;;;;;;5018342;28;20033;-68
2023/02/12 10:45:16;;;;;;;2.80;2.00;;;19.90;50.10;;;;;;5017737;28;20038;-68
2023/02/12 10:47:43;;;;;;;2.80;1.80;;;19.90;50.10;;;;;;5017744;28;20040;-68
2023/02/12 10:50:48;;;;;;;2.83;1.90;;;19.90;50.10;;;;;;5018477;28;20032;-68
2023/02/12 10:53:21;;;;;;;3.15;2.20;;;19.90;50.10;;;;;;5021731;28;20048;-68
2023/02/12 10:55:47;;;;;;;3.35;2.47;;;19.90;50.10;;;;;;5017889;28;20432;-68
2023/02/12 10:58:19;;;;;;;3.95;2.22;;;19.90;50.10;;;;;;5016481;28;20037;-68
2023/02/12 11:00:45;;;;;;;3.55;2.03;;;19.90;50.10;;;;;;5018135;28;20025;-69
2023/02/12 11:03:10;;;;;;;4.03;2.38;;;19.90;50.10;;;;;;5019188;28;20469;-68
2023/02/12 11:05:39;;;;;;;3.42;2.20;;;19.90;50.10;;;;;;5015128;28;20018;-69
2023/02/12 11:08:06;;;;;;;5.10;2.38;;;19.90;50.10;;;;;;5020901;28;20178;-68
2023/02/12 11:10:40;;;;;;;4.22;2.40;;;19.90;50.10;;;;;;5020865;28;20450;-69
2023/02/12 11:13:21;;;;;;;4.22;2.20;;;19.90;50.20;;;;;;5021067;28;20076;-68
2023/02/12 11:15:48;;;;;;;5.80;2.95;;;19.90;50.40;;;;;;5018822;28;20026;-69
2023/02/12 11:18:40;;;;;;;4.65;2.33;;;19.90;50.70;;;;;;5017558;28;20040;-68
2023/02/12 11:21:11;;;;;;;5.88;2.50;;;20.00;50.90;;;;;;5017039;28;20061;-68
2023/02/12 11:23:39;;;;;;;5.28;2.63;;;20.00;51.60;;;;;;5020933;28;20100;-67
2023/02/12 11:26:16;;;;;;;6.38;3.25;;;20.00;51.70;;;;;;5017782;28;20030;-68
2023/02/12 11:28:59;;;;;;;5.57;2.80;;;20.00;51.50;;;;;;5018511;28;20025;-68
2023/02/12 11:31:30;;;;;;;6.50;3.17;;;20.00;51.20;;;;;;5018643;28;20026;-68
2023/02/12 11:34:18;;;;;;;7.05;3.70;;;20.00;51.30;;;;;;5018672;28;20033;-68
2023/02/12 11:36:49;;;;;;;8.52;3.90;;;20.00;51.70;;;;;;5016790;28;20030;-68
2023/02/12 11:39:23;;;;;;;7.47;3.83;;;20.00;51.90;;;;;;5018610;28;20099;-68
2023/02/12 11:41:57;;;;;;;7.82;3.80;;;20.00;51.60;;;;;;5016989;28;20431;-69
2023/02/12 11:44:38;;;;;;;5.85;3.63;;;20.00;51.60;;;;;;5032855;28;20026;-68
2023/02/12 11:47:15;;;;;;;7.00;4.00;;;20.00;51.40;;;;;;5018913;28;20032;-68
2023/02/12 11:50:05;;;;;;;8.63;3.65;;;20.00;51.60;;;;;;5020956;28;20033;-68
2023/02/12 11:52:33;;;;;;;6.72;4.18;;;20.00;51.30;;;;;;5021753;28;20037;-68
2023/02/12 11:55:03;;;;;;;6.70;3.92;;;20.00;51.40;;;;;;5019660;28;20040;-69
2023/02/12 11:57:36;;;;;;;7.97;3.97;;;20.00;51.40;;;;;;5019289;28;20033;-68
2023/02/12 12:00:14;;;;;;;7.00;3.65;;;20.00;51.50;;;;;;5018637;28;20041;-68
2023/02/12 12:02:46;;;;;;;7.57;3.92;;;20.00;51.40;;;;;;5022005;28;20953;-68
2023/02/12 12:05:17;;;;;;;6.18;3.65;;;20.00;51.30;;;;;;5024141;28;20022;-68
2023/02/12 12:07:49;;;;;;;7.75;3.85;;;20.00;51.30;;;;;;5020505;28;20032;-68
2023/02/12 12:10:27;;;;;;;7.72;3.90;;;20.00;52.00;;;;;;5019848;28;20072;-68
2023/02/12 12:12:58;;;;;;;6.72;3.40;;;20.00;52.50;;;;;;5022638;28;20121;-68
2023/02/12 12:21:44;;;;;;;6.57;2.70;;;20.20;53.70;;;;;;5021626;28;20482;-69
2023/02/12 12:24:33;;;;;;;4.93;2.60;;;20.30;53.60;;;;;;5021593;28;20037;-68
2023/02/12 12:28:01;;;;;;;4.35;2.28;;;20.30;53.40;;;;;;5022283;28;20080;-68
2023/02/12 12:30:23;;;;;;;5.55;2.78;;;20.40;53.70;;;;;;5020659;28;20060;-68
2023/02/12 12:32:52;;;;;;;4.18;2.47;;;20.50;53.30;;;;;;5019957;28;20392;-68
2023/02/12 12:35:31;;;;;;;3.63;2.17;;;20.50;53.00;;;;;;5020320;28;20521;-68
2023/02/12 12:38:22;;;;;;;5.25;2.42;;;20.60;52.80;;;;;;5020658;28;20033;-68
2023/02/12 12:40:56;;;;;;;3.33;1.85;;;20.60;52.60;;;;;;5023246;28;20061;-68
2023/02/12 12:44:12;;;;;;;5.22;2.78;;;20.70;52.40;;;;;;5016655;28;20030;-68
2023/02/12 12:47:17;;;;;;;4.15;2.78;;;20.70;53.20;;;;;;5008761;28;20057;-68
2023/02/12 12:49:53;;;;;;;5.15;2.83;;;20.70;52.60;;;;;;5020461;28;20382;-68
2023/02/12 12:52:35;;;;;;;5.05;2.70;;;20.70;52.30;;;;;;5021473;28;20052;-68
2023/02/12 12:55:27;;;;;;;5.05;2.50;;;20.70;52.30;;;;;;5020336;28;20394;-68
2023/02/12 12:58:04;;;;;;;4.78;2.65;;;20.70;52.20;;;;;;5020502;28;20058;-68
2023/02/12 13:01:07;;;;;;;4.57;2.70;;;20.70;52.10;;;;;;5022964;28;20435;-68
2023/02/12 13:03:39;;;;;;;5.20;2.65;;;20.70;52.00;;;;;;5021817;28;20040;-68
2023/02/12 13:06:36;;;;;;;5.55;2.60;;;20.70;51.90;;;;;;5026477;28;20469;-68
2023/02/12 13:09:32;;;;;;;5.30;2.85;;;20.70;51.80;;;;;;5026831;28;20440;-68
2023/02/12 13:12:39;;;;;;;4.30;2.45;;;20.70;51.70;;;;;;5020342;28;20092;-68
2023/02/12 13:15:15;;;;;;;3.83;2.42;;;20.70;51.60;;;;;;4998735;28;20038;-68
2023/02/12 13:17:56;;;;;;;6.07;2.70;;;20.70;52.00;;;;;;4998857;28;20494;-68
2023/02/12 13:20:30;;;;;;;4.63;2.20;;;20.70;51.50;;;;;;5009430;28;20049;-68
2023/02/12 13:23:15;;;;;;;3.75;2.28;;;20.70;51.50;;;;;;5019700;28;20544;-69